createdAt,value
2018-01-28T00:02:12.975Z,6.52
2018-01-28T00:04:41.285Z,6.46
2018-01-28T00:07:09.677Z,6.45
2018-01-28T00:09:37.996Z,6.38
2018-01-28T00:12:06.342Z,6.46
2018-01-28T00:14:35.586Z,6.47
2018-01-28T00:17:03.922Z,6.41
2018-01-28T00:19:32.242Z,6.27
2018-01-28T00:22:00.622Z,6.35
2018-01-28T00:24:28.922Z,6.32
2018-01-28T00:26:57.261Z,6.32
2018-01-28T00:29:25.581Z,6.37
2018-01-28T00:31:53.917Z,6.32
2018-01-28T00:34:23.147Z,6.39
2018-01-28T00:36:51.489Z,6.42
2018-01-28T00:39:20.694Z,6.39
2018-01-28T00:41:49.030Z,6.40
2018-01-28T00:44:27.945Z,6.35
2018-01-28T00:46:56.278Z,6.31
2018-01-28T00:49:24.592Z,6.30
2018-01-28T00:51:52.938Z,6.15
2018-01-28T00:54:21.262Z,6.15
2018-01-28T00:56:49.605Z,6.21
2018-01-28T00:59:17.925Z,6.21
2018-01-28T01:01:46.262Z,6.20
2018-01-28T01:04:14.577Z,6.32
2018-01-28T01:06:42.917Z,6.13
2018-01-28T01:09:11.237Z,6.22
2018-01-28T01:11:39.573Z,6.22
2018-01-28T01:14:07.885Z,6.24
2018-01-28T01:16:36.217Z,6.30
2018-01-28T01:19:04.578Z,6.21
2018-01-28T01:21:32.917Z,6.19
2018-01-28T01:24:01.233Z,6.21
2018-01-28T01:26:29.581Z,6.30
2018-01-28T01:28:57.927Z,6.29
2018-01-28T01:31:26.222Z,6.32
2018-01-28T01:33:54.561Z,6.33
2018-01-28T01:36:22.878Z,6.30
2018-01-28T01:38:51.212Z,6.32
2018-01-28T01:41:19.528Z,6.30
2018-01-28T01:43:47.861Z,6.36
2018-01-28T01:46:16.173Z,6.39
2018-01-28T01:48:44.509Z,6.39
2018-01-28T01:51:12.825Z,6.35
2018-01-28T01:53:41.153Z,6.41
2018-01-28T01:56:09.466Z,6.33
2018-01-28T01:58:37.798Z,6.32
2018-01-28T02:01:06.109Z,6.40
2018-01-28T02:03:34.442Z,6.30
2018-01-28T02:06:02.753Z,6.29
2018-01-28T02:08:31.089Z,6.33
2018-01-28T02:10:59.399Z,6.34
2018-01-28T02:13:27.738Z,6.23
2018-01-28T02:15:56.053Z,6.23
2018-01-28T02:18:24.385Z,6.28
2018-01-28T02:20:52.697Z,6.26
2018-01-28T02:23:21.030Z,6.24
2018-01-28T02:25:49.346Z,6.26
2018-01-28T02:28:17.677Z,6.25
2018-01-28T02:30:45.985Z,6.22
2018-01-28T02:33:14.343Z,6.22
2018-01-28T02:35:42.646Z,6.25
2018-01-28T02:38:10.974Z,6.22
2018-01-28T02:40:39.285Z,6.20
2018-01-28T02:43:07.617Z,6.19
2018-01-28T02:45:37.351Z,6.19
2018-01-28T02:48:05.684Z,6.28
2018-01-28T02:50:33.999Z,6.30
2018-01-28T02:53:02.327Z,6.33
2018-01-28T02:55:30.641Z,6.30
2018-01-28T02:57:58.977Z,6.33
2018-01-28T03:00:27.287Z,6.37
2018-01-28T03:02:55.616Z,6.33
2018-01-28T03:05:23.937Z,6.35
2018-01-28T03:07:52.271Z,6.35
2018-01-28T03:10:20.581Z,6.42
2018-01-28T03:12:48.912Z,6.35
2018-01-28T03:15:17.220Z,6.35
2018-01-28T03:17:45.557Z,6.33
2018-01-28T03:20:13.867Z,6.34
2018-01-28T03:22:42.201Z,6.37
2018-01-28T03:25:10.509Z,6.31
2018-01-28T03:27:38.849Z,6.36
2018-01-28T03:30:07.166Z,6.32
2018-01-28T03:32:35.482Z,6.36
2018-01-28T03:35:03.826Z,6.36
2018-01-28T03:37:32.143Z,6.31
2018-01-28T03:40:00.474Z,6.35
2018-01-28T03:42:28.803Z,6.35
2018-01-28T03:44:57.113Z,6.39
2018-01-28T03:47:25.431Z,6.41
2018-01-28T03:49:53.757Z,6.44
2018-01-28T03:52:22.069Z,6.47
2018-01-28T03:54:50.406Z,6.51
2018-01-28T03:57:18.721Z,6.59
2018-01-28T03:59:47.049Z,6.62
2018-01-28T04:02:15.357Z,6.55
2018-01-28T04:04:43.693Z,6.62
2018-01-28T04:07:12.034Z,6.72
2018-01-28T04:09:40.349Z,6.73
2018-01-28T04:12:08.656Z,6.76
2018-01-28T04:14:36.992Z,6.80
2018-01-28T04:17:05.309Z,6.83
2018-01-28T04:19:33.643Z,6.91
2018-01-28T04:22:01.953Z,6.84
2018-01-28T04:24:30.286Z,6.83
2018-01-28T04:26:58.593Z,6.85
2018-01-28T04:29:26.943Z,6.91
2018-01-28T04:31:55.253Z,6.88
2018-01-28T04:34:23.581Z,6.87
2018-01-28T04:36:51.897Z,6.85
2018-01-28T04:39:20.265Z,6.85
2018-01-28T04:41:48.573Z,6.93
2018-01-28T04:44:16.906Z,6.96
2018-01-28T04:46:45.220Z,6.96
2018-01-28T04:49:13.557Z,7.01
2018-01-28T04:51:41.874Z,7.04
2018-01-28T04:54:10.214Z,7.05
2018-01-28T04:56:38.529Z,7.01
2018-01-28T04:59:06.869Z,6.96
2018-01-28T05:01:37.578Z,7.04
2018-01-28T05:04:05.917Z,6.99
2018-01-28T05:06:34.233Z,7.06
2018-01-28T05:09:02.581Z,7.07
2018-01-28T05:11:30.910Z,7.00
2018-01-28T05:13:59.257Z,7.04
2018-01-28T05:16:27.586Z,7.09
2018-01-28T05:18:55.934Z,7.13
2018-01-28T05:21:24.281Z,7.20
2018-01-28T05:23:52.666Z,7.17
2018-01-28T05:26:20.989Z,7.17
2018-01-28T05:28:49.333Z,7.19
2018-01-28T05:31:17.665Z,7.10
2018-01-28T05:33:45.986Z,7.19
2018-01-28T05:36:14.330Z,7.16
2018-01-28T05:38:42.653Z,7.17
2018-01-28T05:41:10.997Z,7.29
2018-01-28T05:43:39.322Z,7.26
2018-01-28T05:46:07.672Z,7.22
2018-01-28T05:48:35.990Z,7.34
2018-01-28T05:51:04.338Z,7.37
2018-01-28T05:53:32.694Z,7.33
2018-01-28T05:56:01.021Z,7.44
2018-01-28T05:58:29.346Z,7.45
2018-01-28T06:00:57.689Z,7.41
2018-01-28T06:03:26.014Z,7.44
2018-01-28T06:05:54.357Z,7.46
2018-01-28T06:08:22.677Z,7.54
2018-01-28T06:10:51.026Z,7.55
2018-01-28T06:13:19.350Z,7.59
2018-01-28T06:15:47.699Z,7.57
2018-01-28T06:18:16.022Z,7.52
2018-01-28T06:20:44.369Z,7.64
2018-01-28T06:23:12.693Z,7.60
2018-01-28T06:25:41.033Z,7.62
2018-01-28T06:28:09.358Z,7.66
2018-01-28T06:30:37.701Z,7.66
2018-01-28T06:33:06.025Z,7.69
2018-01-28T06:35:34.369Z,7.76
2018-01-28T06:38:03.510Z,7.78
2018-01-28T06:40:31.853Z,7.74
2018-01-28T06:43:00.176Z,7.72
2018-01-28T06:45:28.526Z,7.76
2018-01-28T06:47:56.845Z,7.68
2018-01-28T06:50:25.189Z,7.68
2018-01-28T06:52:53.517Z,7.79
2018-01-28T06:55:21.857Z,7.75
2018-01-28T06:57:50.177Z,7.76
2018-01-28T07:00:18.522Z,7.73
2018-01-28T07:02:46.846Z,7.73
2018-01-28T07:05:15.190Z,7.70
2018-01-28T07:07:43.513Z,7.72
2018-01-28T07:10:11.857Z,7.82
2018-01-28T07:12:40.185Z,7.82
2018-01-28T07:15:08.530Z,7.80
2018-01-28T07:17:36.858Z,7.82
2018-01-28T07:20:05.209Z,7.87
2018-01-28T07:22:33.537Z,7.87
2018-01-28T07:25:01.885Z,7.84
2018-01-28T07:27:30.218Z,7.79
2018-01-28T07:29:58.565Z,7.81
2018-01-28T07:32:26.890Z,7.82
2018-01-28T07:34:55.214Z,7.87
2018-01-28T07:37:23.561Z,7.82
2018-01-28T07:39:51.885Z,7.84
2018-01-28T07:42:20.233Z,7.86
2018-01-28T07:44:48.553Z,7.77
2018-01-28T07:47:16.906Z,7.79
2018-01-28T07:49:45.229Z,7.80
2018-01-28T07:52:13.577Z,7.79
2018-01-28T07:54:41.901Z,7.77
2018-01-28T07:57:10.250Z,7.77
2018-01-28T07:59:38.582Z,7.72
2018-01-28T08:02:06.926Z,7.70
2018-01-28T08:04:35.258Z,7.77
2018-01-28T08:07:03.604Z,7.75
2018-01-28T08:09:31.930Z,7.87
2018-01-28T08:12:15.038Z,7.89
2018-01-28T08:14:43.366Z,7.83
2018-01-28T08:17:11.712Z,7.79
2018-01-28T08:19:40.042Z,7.89
2018-01-28T08:22:08.388Z,7.89
2018-01-28T08:24:36.718Z,7.78
2018-01-28T08:30:07.422Z,7.90
2018-01-28T08:32:35.789Z,7.95
2018-01-28T08:35:04.123Z,7.88
2018-01-28T08:37:32.514Z,7.93
2018-01-28T08:40:00.885Z,8.03
2018-01-28T08:42:29.193Z,7.96
2018-01-28T08:44:57.529Z,8.00
2018-01-28T08:47:25.878Z,8.07
2018-01-28T08:49:54.201Z,8.07
2018-01-28T08:52:22.552Z,8.12
2018-01-28T08:54:50.878Z,8.14
2018-01-28T08:57:19.272Z,8.16
2018-01-28T08:59:47.672Z,8.08
2018-01-28T09:02:16.018Z,8.12
2018-01-28T09:04:44.343Z,8.19
2018-01-28T09:07:12.689Z,8.26
2018-01-28T09:09:41.017Z,8.31
2018-01-28T09:12:09.375Z,8.34
2018-01-28T09:14:37.701Z,8.41
2018-01-28T09:17:06.049Z,8.48
2018-01-28T09:19:34.377Z,8.55
2018-01-28T09:22:02.726Z,8.60
2018-01-28T09:24:31.054Z,8.69
2018-01-28T09:26:59.406Z,8.69
2018-01-28T09:29:27.733Z,8.76
2018-01-28T09:31:56.081Z,8.84
2018-01-28T09:34:24.414Z,8.83
2018-01-28T09:36:52.757Z,8.84
2018-01-28T09:39:21.093Z,8.78
2018-01-28T09:41:49.441Z,8.81
2018-01-28T09:44:17.778Z,8.90
2018-01-28T09:46:46.118Z,8.90
2018-01-28T09:49:14.444Z,8.90
2018-01-28T09:51:42.793Z,8.91
2018-01-28T09:54:11.118Z,8.92
2018-01-28T09:56:39.470Z,8.95
2018-01-28T09:59:07.814Z,8.98
2018-01-28T10:01:36.153Z,8.92
2018-01-28T10:04:04.477Z,8.97
2018-01-28T10:06:32.829Z,8.95
2018-01-28T10:09:01.157Z,8.99
2018-01-28T10:11:29.505Z,9.11
2018-01-28T10:13:57.832Z,9.25
2018-01-28T10:16:26.162Z,9.20
2018-01-28T10:18:54.549Z,9.26
2018-01-28T10:21:22.898Z,9.27
2018-01-28T10:23:51.244Z,9.22
2018-01-28T10:26:19.578Z,9.32
2018-01-28T10:28:48.033Z,9.34
2018-01-28T10:31:16.342Z,9.29
2018-01-28T10:33:44.713Z,9.37
2018-01-28T10:36:13.993Z,9.36
2018-01-28T10:38:42.345Z,9.38
2018-01-28T10:41:10.678Z,9.39
2018-01-28T10:43:39.025Z,9.46
2018-01-28T10:46:07.370Z,9.51
2018-01-28T10:48:35.731Z,9.56
2018-01-28T10:51:04.059Z,9.52
2018-01-28T10:53:53.713Z,9.52
2018-01-28T10:56:26.846Z,9.56
2018-01-28T10:58:55.201Z,9.67
2018-01-28T11:01:23.538Z,9.73
2018-01-28T11:03:51.893Z,9.78
2018-01-28T11:06:21.963Z,9.82
2018-01-28T11:08:50.317Z,9.86
2018-01-28T11:11:18.641Z,9.87
2018-01-28T11:13:46.989Z,9.89
2018-01-28T11:16:16.298Z,9.97
2018-01-28T11:18:44.682Z,9.90
2018-01-28T11:21:12.985Z,9.93
2018-01-28T11:23:41.333Z,9.96
2018-01-28T11:26:09.666Z,10.02
2018-01-28T11:28:38.022Z,10.04
2018-01-28T11:31:06.349Z,10.09
2018-01-28T11:33:34.797Z,10.09
2018-01-28T11:36:04.025Z,10.11
2018-01-28T11:38:32.376Z,10.12
2018-01-28T11:41:00.734Z,10.17
2018-01-28T11:43:29.149Z,10.22
2018-01-28T11:45:57.491Z,10.27
2018-01-28T11:48:25.844Z,10.23
2018-01-28T11:50:54.181Z,10.23
2018-01-28T11:53:22.536Z,10.29
2018-01-28T11:55:50.865Z,10.33
2018-01-28T11:58:19.225Z,10.33
2018-01-28T12:00:47.577Z,10.37
2018-01-28T12:03:15.929Z,10.41
2018-01-28T12:05:45.281Z,10.45
2018-01-28T12:08:13.635Z,10.44
2018-01-28T12:10:41.974Z,10.44
2018-01-28T12:13:10.330Z,10.44
2018-01-28T12:15:38.670Z,10.40
2018-01-28T12:18:07.030Z,10.46
2018-01-28T12:20:35.358Z,10.41
2018-01-28T12:23:03.718Z,10.54
2018-01-28T12:25:33.090Z,10.47
2018-01-28T12:28:01.441Z,10.44
2018-01-28T12:30:29.776Z,10.50
2018-01-28T12:32:58.133Z,10.46
2018-01-28T12:35:26.469Z,10.49
2018-01-28T12:37:54.842Z,10.51
2018-01-28T12:40:23.181Z,10.62
2018-01-28T12:42:51.526Z,10.54
2018-01-28T12:45:19.884Z,10.56
2018-01-28T12:47:48.227Z,10.53
2018-01-28T12:50:16.583Z,10.58
2018-01-28T12:52:44.918Z,10.53
2018-01-28T12:55:13.281Z,10.55
2018-01-28T12:57:41.621Z,10.60
2018-01-28T13:00:09.982Z,10.69
2018-01-28T13:02:38.317Z,10.73
2018-01-28T13:05:07.554Z,10.76
2018-01-28T13:07:35.887Z,10.78
2018-01-28T13:10:04.241Z,10.89
2018-01-28T13:12:32.582Z,10.88
2018-01-28T13:15:00.942Z,10.87
2018-01-28T13:17:29.270Z,10.93
2018-01-28T13:19:57.617Z,10.90
2018-01-28T13:22:25.953Z,10.91
2018-01-28T13:24:54.361Z,10.91
2018-01-28T13:27:22.693Z,10.83
2018-01-28T13:29:51.041Z,10.87
2018-01-28T13:32:19.387Z,10.89
2018-01-28T13:34:47.750Z,10.93
2018-01-28T13:37:16.073Z,10.86
2018-01-28T13:39:44.421Z,10.93
2018-01-28T13:42:12.758Z,10.87
2018-01-28T13:44:42.188Z,10.94
2018-01-28T13:47:10.498Z,10.98
2018-01-28T13:49:38.855Z,10.93
2018-01-28T13:52:07.270Z,10.93
2018-01-28T13:54:35.697Z,10.96
2018-01-28T13:57:04.010Z,10.98
2018-01-28T13:59:32.450Z,10.95
2018-01-28T14:02:01.277Z,10.90
2018-01-28T14:04:29.637Z,11.00
2018-01-28T14:06:58.114Z,10.97
2018-01-28T14:09:26.500Z,11.03
2018-01-28T14:11:54.822Z,11.06
2018-01-28T14:14:23.173Z,10.97
2018-01-28T14:16:51.525Z,11.06
2018-01-28T14:19:19.873Z,11.06
2018-01-28T14:21:48.254Z,11.04
2018-01-28T14:24:18.142Z,11.09
2018-01-28T14:26:46.516Z,11.06
2018-01-28T14:29:14.866Z,11.06
2018-01-28T14:31:43.194Z,10.98
2018-01-28T14:34:11.541Z,11.07
2018-01-28T14:36:39.881Z,11.05
2018-01-28T14:39:08.244Z,11.05
2018-01-28T14:41:36.604Z,11.01
2018-01-28T14:44:04.941Z,10.96
2018-01-28T14:46:33.288Z,11.02
2018-01-28T14:49:01.593Z,10.97
2018-01-28T14:51:29.947Z,10.96
2018-01-28T14:53:58.337Z,10.90
2018-01-28T14:56:26.695Z,10.86
2018-01-28T14:58:55.089Z,10.79
2018-01-28T15:01:23.571Z,10.80
2018-01-28T15:03:51.910Z,10.75
2018-01-28T15:06:20.262Z,10.74
2018-01-28T15:08:48.626Z,10.85
2018-01-28T15:11:16.945Z,10.84
2018-01-28T15:13:45.278Z,10.81
2018-01-28T15:16:13.713Z,10.82
2018-01-28T15:18:42.076Z,10.78
2018-01-28T15:21:10.446Z,10.75
2018-01-28T15:23:38.781Z,10.78
2018-01-28T15:26:07.138Z,10.80
2018-01-28T15:28:35.494Z,10.78
2018-01-28T15:31:03.837Z,10.78
2018-01-28T15:33:32.171Z,10.75
2018-01-28T15:36:01.422Z,10.76
2018-01-28T15:38:29.758Z,10.74
2018-01-28T15:40:58.109Z,10.78
2018-01-28T15:43:26.453Z,10.83
2018-01-28T15:45:55.844Z,10.78
2018-01-28T15:48:24.154Z,10.78
2018-01-28T15:50:52.601Z,10.83
2018-01-28T15:53:20.958Z,10.86
2018-01-28T15:55:49.318Z,10.90
2018-01-28T15:58:17.658Z,10.89
2018-01-28T16:00:46.013Z,10.89
2018-01-28T16:03:14.345Z,10.87
2018-01-28T16:05:43.593Z,10.90
2018-01-28T16:08:11.929Z,10.92
2018-01-28T16:10:40.287Z,10.90
2018-01-28T16:13:08.622Z,10.93
2018-01-28T16:15:37.310Z,10.84
2018-01-28T16:18:05.641Z,10.84
2018-01-28T16:20:33.993Z,10.83
2018-01-28T16:23:02.329Z,10.86
2018-01-28T16:25:30.689Z,10.81
2018-01-28T16:27:59.013Z,10.80
2018-01-28T16:30:27.369Z,10.82
2018-01-28T16:32:55.705Z,10.83
2018-01-28T16:35:24.065Z,10.79
2018-01-28T16:37:52.411Z,10.81
2018-01-28T16:40:20.789Z,10.84
2018-01-28T16:42:49.942Z,10.79
2018-01-28T16:45:18.293Z,10.77
2018-01-28T16:47:46.635Z,10.75
2018-01-28T16:50:14.998Z,10.72
2018-01-28T16:52:43.331Z,10.67
2018-01-28T16:55:11.666Z,10.67
2018-01-28T16:57:40.021Z,10.60
2018-01-28T17:00:08.349Z,10.59
2018-01-28T17:02:37.629Z,10.54
2018-01-28T17:05:05.961Z,10.55
2018-01-28T17:07:34.312Z,10.47
2018-01-28T17:10:02.650Z,10.47
2018-01-28T17:12:31.005Z,10.42
2018-01-28T17:14:59.340Z,10.38
2018-01-28T17:17:27.694Z,10.41
2018-01-28T17:19:56.025Z,10.34
2018-01-28T17:22:25.345Z,10.37
2018-01-28T17:24:53.678Z,10.31
2018-01-28T17:27:22.048Z,10.21
2018-01-28T17:29:50.492Z,10.31
2018-01-28T17:32:18.865Z,10.21
2018-01-28T17:34:47.279Z,10.24
2018-01-28T17:37:15.807Z,10.21
2018-01-28T17:39:46.177Z,10.13
2018-01-28T17:42:14.893Z,10.16
2018-01-28T17:44:43.225Z,10.12
2018-01-28T17:47:11.577Z,10.19
2018-01-28T17:49:39.909Z,10.24
2018-01-28T17:52:08.265Z,10.26
2018-01-28T17:54:36.602Z,10.27
2018-01-28T17:57:04.959Z,10.22
2018-01-28T17:59:33.328Z,10.23
2018-01-28T18:02:01.677Z,10.22
2018-01-28T18:04:30.022Z,10.30
2018-01-28T18:06:58.413Z,10.33
2018-01-28T18:09:26.774Z,10.35
2018-01-28T18:11:55.137Z,10.31
2018-01-28T18:14:23.526Z,10.27
2018-01-28T18:16:51.874Z,10.28
2018-01-28T18:19:20.232Z,10.26
2018-01-28T18:21:48.591Z,10.33
2018-01-28T18:24:16.921Z,10.38
2018-01-28T18:26:45.297Z,10.34
2018-01-28T18:29:13.685Z,10.30
2018-01-28T18:31:41.988Z,10.33
2018-01-28T18:34:10.321Z,10.32
2018-01-28T18:36:38.681Z,10.35
2018-01-28T18:39:07.017Z,10.32
2018-01-28T18:41:35.369Z,10.32
2018-01-28T18:44:03.707Z,10.37
2018-01-28T18:46:32.066Z,10.35
2018-01-28T18:49:00.393Z,10.37
2018-01-28T18:51:28.748Z,10.30
2018-01-28T18:53:57.077Z,10.37
2018-01-28T18:56:25.414Z,10.37
2018-01-28T18:58:53.780Z,10.43
2018-01-28T19:01:22.111Z,10.44
2018-01-28T19:03:50.476Z,10.44
2018-01-28T19:06:19.728Z,10.37
2018-01-28T19:08:48.096Z,10.36
2018-01-28T19:11:16.420Z,10.35
2018-01-28T19:13:44.778Z,10.37
2018-01-28T19:16:13.118Z,10.47
2018-01-28T19:18:42.225Z,10.50
2018-01-28T19:21:10.566Z,10.47
2018-01-28T19:23:38.918Z,10.54
2018-01-28T19:26:07.257Z,10.47
2018-01-28T19:28:35.634Z,10.54
2018-01-28T19:31:03.973Z,10.50
2018-01-28T19:33:32.327Z,10.48
2018-01-28T19:36:01.572Z,10.54
2018-01-28T19:38:29.934Z,10.44
2018-01-28T19:40:58.265Z,10.49
2018-01-28T19:43:26.622Z,10.42
2018-01-28T19:45:54.957Z,10.54
2018-01-28T19:48:23.313Z,10.48
2018-01-28T19:50:51.649Z,10.54
2018-01-28T19:53:20.009Z,10.48
2018-01-28T19:55:48.341Z,10.52
2018-01-28T19:58:16.721Z,10.50
2018-01-28T20:00:45.068Z,10.48
2018-01-28T20:03:13.418Z,10.48
2018-01-28T20:05:41.753Z,10.53
2018-01-28T20:08:10.146Z,10.52
2018-01-28T20:10:38.477Z,10.52
2018-01-28T20:13:06.913Z,10.50
2018-01-28T20:15:35.261Z,10.49
2018-01-28T20:18:04.027Z,10.52
2018-01-28T20:20:32.363Z,10.48
2018-01-28T20:23:00.718Z,10.51
2018-01-28T20:25:29.050Z,10.49
2018-01-28T20:27:57.401Z,10.48
2018-01-28T20:30:25.734Z,10.50
2018-01-28T20:32:54.099Z,10.49
2018-01-28T20:35:22.430Z,10.48
2018-01-28T20:37:50.780Z,10.49
2018-01-28T20:40:19.469Z,10.49
2018-01-28T20:42:47.830Z,10.52
2018-01-28T20:45:16.174Z,10.55
2018-01-28T20:47:44.529Z,10.52
2018-01-28T20:50:12.865Z,10.54
2018-01-28T20:52:41.399Z,10.46
2018-01-28T20:55:09.742Z,10.51
2018-01-28T20:57:38.178Z,10.59
2018-01-28T21:00:06.505Z,10.56
2018-01-28T21:02:34.849Z,10.59
2018-01-28T21:05:03.203Z,10.55
2018-01-28T21:07:31.545Z,10.59
2018-01-28T21:09:59.937Z,10.59
2018-01-28T21:12:28.281Z,10.60
2018-01-28T21:14:56.648Z,10.59
2018-01-28T21:17:25.048Z,10.57
2018-01-28T21:19:53.397Z,10.66
2018-01-28T21:22:21.729Z,10.59
2018-01-28T21:24:50.130Z,10.59
2018-01-28T21:27:18.504Z,10.64
2018-01-28T21:29:46.858Z,10.55
2018-01-28T21:32:15.210Z,10.61
2018-01-28T21:34:44.151Z,10.58
2018-01-28T21:37:12.494Z,10.66
2018-01-28T21:39:40.913Z,10.64
2018-01-28T21:42:09.226Z,10.60
2018-01-28T21:44:37.592Z,10.67
2018-01-28T21:47:05.925Z,10.66
2018-01-28T21:49:34.406Z,10.73
2018-01-28T21:52:02.762Z,10.65
2018-01-28T21:54:31.112Z,10.74
2018-01-28T21:56:59.457Z,10.66
2018-01-28T21:59:27.855Z,10.61
2018-01-28T22:01:56.145Z,10.60
2018-01-28T22:04:24.523Z,10.61
2018-01-28T22:06:52.915Z,10.59
2018-01-28T22:09:31.978Z,10.60
2018-01-28T22:12:00.317Z,10.65
2018-01-28T22:14:28.679Z,10.72
2018-01-28T22:16:57.048Z,10.68
2018-01-28T22:19:25.439Z,10.67
2018-01-28T22:21:54.606Z,10.67
2018-01-28T22:24:22.958Z,10.66
2018-01-28T22:26:51.305Z,10.69
2018-01-28T22:29:19.656Z,10.67
2018-01-28T22:31:47.991Z,10.60
2018-01-28T22:34:16.344Z,10.61
2018-01-28T22:36:44.686Z,10.68
2018-01-28T22:39:13.034Z,10.69
2018-01-28T22:41:42.182Z,10.61
2018-01-28T22:44:10.560Z,10.61
2018-01-28T22:46:38.899Z,10.65
2018-01-28T22:49:07.266Z,10.64
2018-01-28T22:51:35.609Z,10.59
2018-01-28T22:54:03.970Z,10.61
2018-01-28T22:56:32.305Z,10.63
2018-01-28T22:59:00.661Z,10.68
2018-01-28T23:01:32.985Z,10.61
2018-01-28T23:04:01.341Z,10.67
2018-01-28T23:06:29.685Z,10.67
2018-01-28T23:08:58.047Z,10.66
2018-01-28T23:11:26.386Z,10.70
2018-01-28T23:13:54.749Z,10.67
2018-01-28T23:16:23.093Z,10.71
2018-01-28T23:18:51.426Z,10.66
2018-01-28T23:21:19.780Z,10.67
2018-01-28T23:23:48.121Z,10.64
2018-01-28T23:26:16.472Z,10.60
2018-01-28T23:28:44.874Z,10.63
2018-01-28T23:31:13.191Z,10.66
2018-01-28T23:33:41.529Z,10.61
2018-01-28T23:36:11.257Z,10.62
2018-01-28T23:38:39.594Z,10.67
2018-01-28T23:41:07.951Z,10.57
2018-01-28T23:43:36.279Z,10.59
2018-01-28T23:46:04.632Z,10.68
2018-01-28T23:48:32.970Z,10.71
2018-01-28T23:51:01.322Z,10.67
2018-01-28T23:53:29.660Z,10.68
2018-01-28T23:55:58.013Z,10.67
2018-01-28T23:58:26.345Z,10.66
